臺東航空站 - ATIS

METAR RCFN 141200Z 34003KT 290V030 9999 FEW020 SCT030 BKN060 21/19 Q1022 NOSIG RMK A3020=

站台狀態:Online
最後更新:2019-12-14 23:30:02